createdAt,value
2022-09-02T00:01:45.407Z,18.00
2022-09-02T00:04:15.430Z,17.98
2022-09-02T00:06:43.200Z,17.96
2022-09-02T00:09:13.052Z,17.84
2022-09-02T00:11:41.589Z,17.97
2022-09-02T00:14:13.042Z,17.84
2022-09-02T00:16:41.943Z,17.96
2022-09-02T00:19:08.679Z,17.98
2022-09-02T00:21:35.882Z,17.95
2022-09-02T00:24:05.178Z,18.01
2022-09-02T00:26:31.895Z,17.97
2022-09-02T00:28:58.614Z,17.97
2022-09-02T00:31:27.638Z,17.57
2022-09-02T00:33:55.014Z,17.99
2022-09-02T00:36:22.295Z,17.97
2022-09-02T00:38:49.142Z,17.98
2022-09-02T00:41:15.720Z,17.98
2022-09-02T00:43:42.589Z,17.97
2022-09-02T00:46:09.442Z,17.97
2022-09-02T00:48:41.395Z,17.98
2022-09-02T00:51:11.734Z,17.95
2022-09-02T00:53:40.807Z,17.92
2022-09-02T00:56:14.041Z,17.87
2022-09-02T00:58:43.473Z,17.88
2022-09-02T01:01:11.776Z,17.86
2022-09-02T01:03:40.580Z,17.84
2022-09-02T01:06:08.302Z,17.76
2022-09-02T01:08:39.335Z,17.59
2022-09-02T01:11:07.185Z,17.64
2022-09-02T01:13:39.434Z,17.56
2022-09-02T01:16:31.151Z,17.48
2022-09-02T01:19:02.559Z,17.45
2022-09-02T01:21:29.172Z,17.43
2022-09-02T01:23:55.899Z,17.41
2022-09-02T01:26:22.812Z,17.39
2022-09-02T01:28:49.393Z,17.22
2022-09-02T01:31:16.061Z,17.38
2022-09-02T01:33:42.842Z,17.33
2022-09-02T01:36:11.948Z,17.32
2022-09-02T01:38:38.839Z,17.33
2022-09-02T01:41:05.820Z,17.38
2022-09-02T01:43:32.395Z,17.30
2022-09-02T01:46:00.162Z,17.41
2022-09-02T01:48:27.210Z,17.41
2022-09-02T01:51:01.312Z,17.44
2022-09-02T01:53:29.120Z,17.43
2022-09-02T01:55:55.911Z,17.30
2022-09-02T01:58:23.329Z,17.44
2022-09-02T02:00:50.350Z,17.35
2022-09-02T02:03:17.607Z,17.41
2022-09-02T02:05:45.070Z,17.39
2022-09-02T02:08:11.764Z,17.40
2022-09-02T02:10:41.680Z,17.39
2022-09-02T02:13:08.489Z,17.37
2022-09-02T02:15:38.680Z,17.36
2022-09-02T02:18:05.402Z,17.31
2022-09-02T02:20:32.095Z,17.29
2022-09-02T02:22:58.655Z,17.26
2022-09-02T02:25:25.504Z,17.19
2022-09-02T02:27:52.781Z,17.18
2022-09-02T02:30:20.300Z,17.19
2022-09-02T02:32:47.357Z,17.15
2022-09-02T02:35:17.079Z,17.14
2022-09-02T02:37:44.651Z,16.98
2022-09-02T02:40:11.942Z,17.12
2022-09-02T02:42:39.626Z,17.12
2022-09-02T02:45:10.138Z,17.13
2022-09-02T02:47:43.370Z,17.16
2022-09-02T02:50:12.220Z,17.13
2022-09-02T02:52:41.179Z,17.03
2022-09-02T02:55:10.107Z,17.01
2022-09-02T02:57:39.062Z,17.00
2022-09-02T03:00:15.655Z,16.93
2022-09-02T03:02:42.303Z,16.94
2022-09-02T03:05:11.129Z,16.94
2022-09-02T03:07:37.669Z,16.88
2022-09-02T03:10:08.310Z,16.92
2022-09-02T03:12:36.735Z,16.92
2022-09-02T03:15:04.744Z,17.01
2022-09-02T03:17:31.511Z,17.00
2022-09-02T03:19:59.399Z,16.98
2022-09-02T03:22:27.415Z,16.80
2022-09-02T03:24:54.191Z,16.91
2022-09-02T03:27:20.718Z,16.74
2022-09-02T03:29:47.456Z,16.85
2022-09-02T03:32:14.735Z,16.92
2022-09-02T03:34:41.870Z,16.91
2022-09-02T03:37:09.783Z,16.96
2022-09-02T03:39:39.712Z,16.92
2022-09-02T03:42:06.887Z,16.92
2022-09-02T03:44:41.687Z,16.89
2022-09-02T03:47:08.922Z,16.72
2022-09-02T03:49:36.194Z,16.86
2022-09-02T03:52:03.020Z,16.83
2022-09-02T03:54:29.560Z,16.73
2022-09-02T03:56:56.128Z,16.76
2022-09-02T03:59:22.703Z,16.73
2022-09-02T04:01:49.335Z,16.68
2022-09-02T04:04:19.681Z,16.61
2022-09-02T04:06:48.902Z,16.51
2022-09-02T04:09:15.471Z,16.61
2022-09-02T04:11:42.914Z,16.52
2022-09-02T04:14:09.908Z,16.44
2022-09-02T04:16:37.829Z,16.31
2022-09-02T04:19:05.943Z,16.29
2022-09-02T04:21:35.208Z,16.43
2022-09-02T04:24:01.846Z,16.46
2022-09-02T04:26:28.446Z,16.44
2022-09-02T04:28:55.047Z,16.48
2022-09-02T04:31:25.798Z,16.53
2022-09-02T04:33:53.356Z,16.58
2022-09-02T04:36:20.911Z,16.57
2022-09-02T04:38:47.869Z,16.56
2022-09-02T04:41:18.575Z,16.55
2022-09-02T04:43:45.346Z,16.59
2022-09-02T04:46:16.591Z,16.58
2022-09-02T04:48:45.336Z,16.59
2022-09-02T04:51:16.618Z,16.60
2022-09-02T04:53:44.792Z,16.46
2022-09-02T04:56:15.129Z,16.46
2022-09-02T04:58:44.447Z,16.54
2022-09-02T05:01:17.986Z,16.52
2022-09-02T05:03:45.563Z,16.58
2022-09-02T05:06:15.701Z,16.57
2022-09-02T05:08:42.815Z,16.61
2022-09-02T05:11:13.462Z,16.59
2022-09-02T05:13:41.691Z,16.61
2022-09-02T05:16:08.517Z,16.69
2022-09-02T05:18:35.289Z,16.76
2022-09-02T05:21:06.639Z,16.81
2022-09-02T05:23:34.669Z,16.81
2022-09-02T05:26:07.893Z,16.80
2022-09-02T05:28:34.890Z,16.80
2022-09-02T05:31:12.802Z,16.86
2022-09-02T05:33:43.186Z,16.88
2022-09-02T05:36:20.458Z,16.88
2022-09-02T05:38:47.680Z,16.89
2022-09-02T05:41:18.288Z,16.81
2022-09-02T05:43:45.801Z,16.94
2022-09-02T05:46:17.668Z,17.02
2022-09-02T05:49:04.643Z,16.97
2022-09-02T05:51:32.555Z,17.05
2022-09-02T05:54:01.119Z,17.21
2022-09-02T05:56:28.125Z,17.30
2022-09-02T05:58:58.974Z,17.42
2022-09-02T06:01:27.526Z,17.48
2022-09-02T06:03:54.129Z,17.51
2022-09-02T06:06:23.035Z,17.37
2022-09-02T06:08:50.566Z,17.63
2022-09-02T06:11:18.169Z,17.59
2022-09-02T06:13:46.179Z,17.88
2022-09-02T06:16:19.390Z,18.07
2022-09-02T06:18:50.311Z,18.16
2022-09-02T06:21:17.427Z,18.14
2022-09-02T06:23:44.948Z,18.15
2022-09-02T06:26:13.191Z,18.19
2022-09-02T06:28:40.826Z,18.17
2022-09-02T06:31:10.416Z,18.25
2022-09-02T06:33:38.133Z,18.32
2022-09-02T06:36:12.241Z,18.43
2022-09-02T06:38:45.164Z,18.39
2022-09-02T06:41:16.953Z,18.52
2022-09-02T06:43:43.706Z,18.61
2022-09-02T06:46:20.180Z,18.68
2022-09-02T06:48:50.070Z,19.07
2022-09-02T06:51:22.129Z,19.42
2022-09-02T06:53:48.686Z,19.50
2022-09-02T06:56:15.806Z,19.87
2022-09-02T06:58:42.468Z,19.95
2022-09-02T07:01:17.161Z,20.18
2022-09-02T07:04:04.097Z,20.24
2022-09-02T07:06:37.204Z,20.55
2022-09-02T07:09:08.996Z,20.59
2022-09-02T07:11:36.827Z,20.89
2022-09-02T07:14:04.009Z,21.07
2022-09-02T07:16:34.318Z,21.37
2022-09-02T07:19:01.368Z,21.63
2022-09-02T07:21:29.183Z,21.67
2022-09-02T07:23:56.208Z,21.82
2022-09-02T07:26:22.869Z,22.04
2022-09-02T07:28:49.840Z,22.08
2022-09-02T07:31:17.083Z,22.19
2022-09-02T07:33:45.029Z,22.21
2022-09-02T07:36:16.718Z,22.20
2022-09-02T07:38:43.320Z,22.44
2022-09-02T07:41:10.591Z,22.66
2022-09-02T07:43:38.689Z,22.91
2022-09-02T07:46:05.881Z,23.11
2022-09-02T07:48:33.447Z,23.35
2022-09-02T07:51:00.203Z,23.39
2022-09-02T07:53:27.398Z,23.58
2022-09-02T07:55:54.020Z,23.65
2022-09-02T07:58:22.466Z,23.54
2022-09-02T08:00:50.490Z,23.48
2022-09-02T08:03:18.003Z,23.21
2022-09-02T08:05:47.146Z,23.02
2022-09-02T08:08:15.875Z,23.25
2022-09-02T08:10:43.272Z,23.34
2022-09-02T08:13:10.604Z,23.32
2022-09-02T08:15:38.879Z,23.09
2022-09-02T08:18:08.583Z,22.74
2022-09-02T08:20:44.420Z,22.67
2022-09-02T08:23:18.545Z,22.77
2022-09-02T08:25:52.485Z,22.89
2022-09-02T08:28:19.114Z,22.92
2022-09-02T08:30:46.058Z,22.80
2022-09-02T08:33:12.612Z,22.88
2022-09-02T08:35:39.322Z,22.84
2022-09-02T08:38:06.040Z,22.88
2022-09-02T08:40:39.540Z,22.92
2022-09-02T08:43:32.380Z,22.95
2022-09-02T08:46:05.223Z,23.02
2022-09-02T08:48:45.315Z,22.97
2022-09-02T08:51:27.079Z,22.99
2022-09-02T08:54:30.591Z,22.85
2022-09-02T08:56:58.125Z,22.68
2022-09-02T08:59:27.792Z,22.77
2022-09-02T09:02:32.907Z,22.77
2022-09-02T09:05:14.821Z,22.66
2022-09-02T09:08:04.870Z,22.40
2022-09-02T09:10:57.033Z,22.40
2022-09-02T09:13:47.185Z,22.39
2022-09-02T09:16:30.295Z,22.51
2022-09-02T09:19:11.735Z,22.50
2022-09-02T09:21:40.097Z,22.46
2022-09-02T09:24:28.138Z,22.78
2022-09-02T09:26:55.332Z,22.69
2022-09-02T09:29:22.416Z,22.83
2022-09-02T09:31:56.055Z,22.79
2022-09-02T09:34:22.967Z,22.80
2022-09-02T09:36:56.154Z,22.89
2022-09-02T09:39:24.757Z,22.96
2022-09-02T09:41:56.895Z,23.02
2022-09-02T09:44:40.788Z,23.07
2022-09-02T09:47:19.598Z,23.03
2022-09-02T09:49:51.441Z,22.98
2022-09-02T09:52:29.684Z,22.87
2022-09-02T09:55:12.620Z,23.23
2022-09-02T09:57:41.275Z,23.29
2022-09-02T10:00:22.261Z,23.49
2022-09-02T10:02:55.401Z,23.56
2022-09-02T10:05:24.799Z,23.71
2022-09-02T10:08:03.548Z,23.83
2022-09-02T10:10:32.907Z,23.90
2022-09-02T10:16:00.236Z,23.89
2022-09-02T10:18:34.841Z,24.07
2022-09-02T10:21:24.585Z,24.17
2022-09-02T10:24:09.452Z,24.12
2022-09-02T10:26:48.198Z,24.20
2022-09-02T10:29:34.882Z,24.12
2022-09-02T10:32:36.148Z,24.32
2022-09-02T10:35:17.619Z,24.41
2022-09-02T10:38:03.808Z,24.66
2022-09-02T10:40:45.746Z,24.71
2022-09-02T10:43:50.268Z,24.71
2022-09-02T10:46:25.426Z,24.72
2022-09-02T10:49:07.751Z,24.85
2022-09-02T10:51:43.384Z,24.89
2022-09-02T10:54:40.065Z,24.99
2022-09-02T10:57:14.415Z,25.01
2022-09-02T10:59:52.536Z,24.94
2022-09-02T11:02:35.342Z,25.13
2022-09-02T11:05:16.721Z,25.34
2022-09-02T11:07:46.347Z,25.41
2022-09-02T11:10:22.371Z,25.33
2022-09-02T11:13:05.243Z,25.32
2022-09-02T11:15:47.529Z,25.26
2022-09-02T11:18:42.088Z,24.66
2022-09-02T11:21:47.226Z,24.52
2022-09-02T11:24:20.085Z,24.67
2022-09-02T11:26:56.401Z,24.75
2022-09-02T11:29:44.829Z,24.90
2022-09-02T11:32:29.551Z,25.00
2022-09-02T11:34:59.657Z,24.93
2022-09-02T11:38:03.748Z,24.53
2022-09-02T11:40:39.201Z,24.35
2022-09-02T11:43:29.690Z,24.50
2022-09-02T11:46:33.060Z,24.62
2022-09-02T11:49:26.706Z,25.04
2022-09-02T11:51:59.113Z,25.13
2022-09-02T11:54:35.991Z,24.93
2022-09-02T11:57:05.807Z,24.63
2022-09-02T11:59:50.519Z,24.36
2022-09-02T12:02:50.971Z,24.21
2022-09-02T12:05:32.782Z,24.35
2022-09-02T12:08:04.296Z,24.62
2022-09-02T12:10:43.506Z,24.91
2022-09-02T12:13:11.419Z,25.31
2022-09-02T12:15:40.738Z,25.50
2022-09-02T12:18:28.444Z,25.63
2022-09-02T12:20:58.305Z,25.76
2022-09-02T12:23:46.850Z,25.81
2022-09-02T12:26:15.990Z,25.68
2022-09-02T12:28:47.124Z,25.32
2022-09-02T12:31:28.655Z,25.56
2022-09-02T12:33:55.208Z,25.69
2022-09-02T12:36:36.652Z,25.88
2022-09-02T12:39:28.348Z,25.96
2022-09-02T12:41:58.103Z,26.08
2022-09-02T12:44:44.879Z,26.00
2022-09-02T12:47:24.264Z,25.92
2022-09-02T12:50:04.943Z,25.89
2022-09-02T12:52:34.251Z,26.00
2022-09-02T12:55:14.452Z,25.96
2022-09-02T12:57:43.584Z,26.18
2022-09-02T13:00:28.383Z,26.15
2022-09-02T13:03:26.276Z,26.27
2022-09-02T13:06:06.428Z,26.33
2022-09-02T13:09:12.753Z,26.44
2022-09-02T13:12:07.171Z,26.48
2022-09-02T13:14:58.540Z,26.56
2022-09-02T13:17:46.644Z,26.57
2022-09-02T13:20:45.488Z,26.32
2022-09-02T13:23:31.248Z,26.37
2022-09-02T13:26:50.865Z,26.44
2022-09-02T13:29:44.756Z,26.45
2022-09-02T13:32:20.595Z,26.45
2022-09-02T13:34:49.837Z,26.22
2022-09-02T13:37:40.967Z,26.37
2022-09-02T13:40:26.806Z,26.32
2022-09-02T13:42:55.318Z,26.29
2022-09-02T13:45:25.293Z,26.27
2022-09-02T13:47:57.759Z,26.33
2022-09-02T13:50:30.394Z,26.27
2022-09-02T13:55:54.082Z,26.13
2022-09-02T13:58:29.376Z,26.23
2022-09-02T14:01:01.654Z,26.17
2022-09-02T14:03:32.780Z,26.35
2022-09-02T14:06:00.838Z,26.26
2022-09-02T14:08:29.313Z,26.15
2022-09-02T14:10:56.663Z,26.14
2022-09-02T14:13:23.668Z,26.14
2022-09-02T14:15:50.495Z,26.03
2022-09-02T14:18:18.886Z,26.17
2022-09-02T14:21:01.354Z,25.99
2022-09-02T14:23:33.394Z,26.16
2022-09-02T14:26:01.832Z,26.18
2022-09-02T14:28:34.319Z,26.13
2022-09-02T14:31:04.385Z,26.18
2022-09-02T14:33:36.537Z,26.15
2022-09-02T14:36:08.485Z,26.08
2022-09-02T14:38:47.074Z,26.17
2022-09-02T14:41:28.174Z,26.12
2022-09-02T14:44:00.413Z,26.13
2022-09-02T14:46:33.625Z,26.04
2022-09-02T14:49:09.779Z,26.05
2022-09-02T14:51:45.039Z,26.04
2022-09-02T14:54:11.740Z,25.74
2022-09-02T14:56:50.355Z,25.85
2022-09-02T14:59:17.912Z,25.87
2022-09-02T15:01:50.661Z,25.89
2022-09-02T15:04:19.457Z,25.96
2022-09-02T15:06:47.115Z,25.91
2022-09-02T15:09:18.083Z,25.90
2022-09-02T15:11:51.575Z,25.84
2022-09-02T15:14:18.136Z,25.76
2022-09-02T15:16:45.062Z,25.76
2022-09-02T15:19:11.745Z,25.66
2022-09-02T15:21:38.339Z,25.52
2022-09-02T15:24:05.375Z,25.65
2022-09-02T15:26:31.938Z,25.62
2022-09-02T15:28:58.476Z,25.53
2022-09-02T15:31:26.616Z,25.47
2022-09-02T15:33:53.411Z,25.48
2022-09-02T15:36:21.227Z,25.31
2022-09-02T15:38:47.808Z,25.42
2022-09-02T15:41:17.854Z,25.40
2022-09-02T15:43:46.073Z,25.29
2022-09-02T15:46:21.897Z,25.27
2022-09-02T15:48:49.222Z,25.18
2022-09-02T15:51:18.424Z,25.04
2022-09-02T15:53:45.012Z,25.08
2022-09-02T15:56:20.477Z,25.02
2022-09-02T15:58:47.637Z,24.92
2022-09-02T16:01:14.583Z,24.86
2022-09-02T16:03:41.246Z,25.00
2022-09-02T16:06:11.016Z,25.00
2022-09-02T16:08:37.720Z,24.90
2022-09-02T16:11:07.062Z,24.87
2022-09-02T16:13:35.016Z,24.90
2022-09-02T16:16:09.358Z,24.90
2022-09-02T16:18:37.289Z,24.78
2022-09-02T16:21:04.810Z,24.84
2022-09-02T16:23:31.916Z,24.85
2022-09-02T16:26:10.464Z,24.85
2022-09-02T16:28:38.604Z,24.73
2022-09-02T16:31:07.734Z,24.86
2022-09-02T16:33:36.009Z,24.85
2022-09-02T16:36:03.712Z,24.79
2022-09-02T16:38:30.287Z,24.69
2022-09-02T16:40:58.436Z,24.78
2022-09-02T16:43:25.895Z,24.65
2022-09-02T16:45:53.639Z,24.81
2022-09-02T16:48:25.634Z,24.81
2022-09-02T16:50:52.508Z,24.70
2022-09-02T16:53:19.212Z,24.59
2022-09-02T16:55:47.059Z,24.48
2022-09-02T16:58:16.703Z,24.40
2022-09-02T17:00:43.348Z,24.29
2022-09-02T17:03:10.971Z,24.22
2022-09-02T17:05:37.534Z,24.21
2022-09-02T17:08:05.344Z,24.10
2022-09-02T17:10:34.434Z,24.05
2022-09-02T17:13:01.506Z,24.03
2022-09-02T17:15:30.333Z,23.99
2022-09-02T17:17:56.959Z,23.91
2022-09-02T17:20:23.819Z,23.91
2022-09-02T17:22:51.426Z,23.74
2022-09-02T17:25:18.316Z,23.78
2022-09-02T17:27:44.964Z,23.83
2022-09-02T17:30:12.406Z,23.76
2022-09-02T17:32:39.805Z,23.75
2022-09-02T17:35:08.892Z,23.75
2022-09-02T17:37:37.514Z,23.67
2022-09-02T17:40:06.619Z,23.49
2022-09-02T17:42:34.090Z,23.53
2022-09-02T17:45:01.301Z,23.49
2022-09-02T17:47:31.699Z,23.38
2022-09-02T17:49:59.187Z,23.43
2022-09-02T17:52:25.938Z,23.32
2022-09-02T17:54:54.436Z,23.29
2022-09-02T17:57:28.230Z,23.25
2022-09-02T18:00:19.192Z,23.21
2022-09-02T18:03:15.332Z,23.17
2022-09-02T18:05:43.517Z,23.09
2022-09-02T18:08:33.831Z,23.02
2022-09-02T18:11:05.311Z,22.96
2022-09-02T18:13:55.215Z,22.89
2022-09-02T18:16:32.238Z,22.86
2022-09-02T18:19:49.952Z,22.79
2022-09-02T18:22:35.802Z,22.66
2022-09-02T18:25:33.431Z,22.64
2022-09-02T18:28:09.100Z,22.63
2022-09-02T18:30:49.309Z,22.53
2022-09-02T18:33:25.878Z,22.52
2022-09-02T18:35:52.405Z,22.48
2022-09-02T18:39:06.441Z,22.43
2022-09-02T18:42:06.619Z,22.39
2022-09-02T18:44:43.618Z,22.36
2022-09-02T18:47:14.953Z,22.34
2022-09-02T18:49:43.704Z,22.28
2022-09-02T18:52:11.505Z,22.25
2022-09-02T18:54:51.683Z,22.13
2022-09-02T18:57:18.255Z,22.11
2022-09-02T18:59:57.173Z,22.08
2022-09-02T19:02:50.288Z,22.05
2022-09-02T19:05:22.184Z,22.03
2022-09-02T19:08:15.870Z,21.97
2022-09-02T19:10:42.396Z,21.95
2022-09-02T19:13:09.158Z,21.93
2022-09-02T19:15:35.921Z,21.90
2022-09-02T19:18:03.427Z,21.84
2022-09-02T19:20:30.124Z,21.81
2022-09-02T19:23:02.070Z,21.79
2022-09-02T19:25:30.846Z,21.78
2022-09-02T19:28:02.543Z,21.68
2022-09-02T19:30:35.926Z,21.73
2022-09-02T19:33:06.740Z,21.65
2022-09-02T19:35:35.991Z,21.70
2022-09-02T19:38:02.926Z,21.55
2022-09-02T19:40:36.452Z,21.46
2022-09-02T19:43:05.233Z,21.55
2022-09-02T19:45:36.142Z,21.55
2022-09-02T19:48:06.941Z,21.52
2022-09-02T19:50:36.184Z,21.38
2022-09-02T19:53:02.859Z,21.44
2022-09-02T19:55:29.878Z,21.42
2022-09-02T19:57:56.382Z,21.26
2022-09-02T20:00:23.098Z,21.39
2022-09-02T20:02:51.124Z,21.28
2022-09-02T20:05:17.755Z,21.34
2022-09-02T20:07:44.328Z,21.33
2022-09-02T20:10:10.950Z,21.37
2022-09-02T20:12:37.544Z,21.22
2022-09-02T20:15:06.780Z,21.27
2022-09-02T20:17:33.459Z,21.19
2022-09-02T20:20:11.858Z,21.14
2022-09-02T20:22:38.437Z,21.08
2022-09-02T20:25:05.292Z,20.91
2022-09-02T20:28:04.737Z,21.01
2022-09-02T20:30:35.999Z,20.97
2022-09-02T20:33:22.398Z,20.92
2022-09-02T20:36:03.868Z,20.85
2022-09-02T20:38:45.258Z,20.73
2022-09-02T20:41:37.996Z,20.70
2022-09-02T20:44:13.646Z,20.62
2022-09-02T20:46:59.147Z,20.54
2022-09-02T20:49:54.229Z,20.49
2022-09-02T20:52:25.012Z,20.47
2022-09-02T20:55:03.893Z,20.39
2022-09-02T20:58:19.340Z,20.32
2022-09-02T21:01:08.615Z,20.25
2022-09-02T21:03:52.917Z,20.13
2022-09-02T21:06:24.301Z,20.16
2022-09-02T21:09:03.187Z,20.13
2022-09-02T21:11:38.130Z,20.06
2022-09-02T21:14:13.542Z,19.99
2022-09-02T21:16:49.009Z,19.78
2022-09-02T21:19:36.414Z,19.83
2022-09-02T21:22:23.367Z,19.74
2022-09-02T21:25:02.957Z,19.77
2022-09-02T21:27:45.221Z,19.72
2022-09-02T21:30:18.155Z,19.62
2022-09-02T21:32:53.643Z,19.58
2022-09-02T21:35:24.326Z,19.40
2022-09-02T21:38:02.612Z,19.44
2022-09-02T21:40:59.829Z,19.38
2022-09-02T21:43:32.337Z,19.35
2022-09-02T21:46:22.095Z,19.23
2022-09-02T21:48:59.079Z,19.17
2022-09-02T21:51:39.053Z,19.27
2022-09-02T21:54:29.081Z,19.24
2022-09-02T21:57:29.552Z,19.10
2022-09-02T22:00:02.946Z,19.02
2022-09-02T22:02:50.195Z,18.97
2022-09-02T22:05:32.141Z,18.72
2022-09-02T22:08:17.303Z,18.78
2022-09-02T22:10:59.283Z,18.62
2022-09-02T22:13:30.012Z,18.63
2022-09-02T22:16:05.034Z,18.46
2022-09-02T22:18:41.020Z,18.34
2022-09-02T22:21:31.406Z,18.27
2022-09-02T22:24:00.960Z,18.23
2022-09-02T22:26:38.634Z,18.14
2022-09-02T22:29:13.298Z,18.10
2022-09-02T22:31:43.109Z,18.04
2022-09-02T22:34:10.598Z,18.01
2022-09-02T22:36:49.787Z,17.96
2022-09-02T22:39:17.401Z,17.98
2022-09-02T22:41:56.165Z,17.91
2022-09-02T22:44:49.362Z,17.88
2022-09-02T22:47:39.088Z,17.85
2022-09-02T22:50:29.147Z,17.72
2022-09-02T22:52:55.988Z,17.84
2022-09-02T22:55:29.379Z,17.68
2022-09-02T22:58:30.889Z,17.80
2022-09-02T23:01:05.649Z,17.73
2022-09-02T23:03:43.044Z,17.69
2022-09-02T23:06:30.258Z,17.63
2022-09-02T23:09:05.638Z,17.49
2022-09-02T23:11:53.219Z,17.58
2022-09-02T23:14:32.009Z,17.54
2022-09-02T23:17:20.785Z,17.32
2022-09-02T23:19:50.036Z,17.43
2022-09-02T23:22:43.150Z,17.29
2022-09-02T23:25:50.956Z,17.44
2022-09-02T23:28:19.205Z,17.36
2022-09-02T23:31:01.143Z,17.31
2022-09-02T23:33:51.340Z,17.29
2022-09-02T23:36:35.239Z,17.11
2022-09-02T23:39:19.051Z,17.06
2022-09-02T23:41:46.210Z,17.15
2022-09-02T23:44:12.843Z,17.13
2022-09-02T23:46:57.994Z,17.02
2022-09-02T23:49:49.330Z,17.09
2022-09-02T23:52:34.056Z,17.10
2022-09-02T23:55:21.644Z,17.08
2022-09-02T23:58:06.906Z,17.04
